DIWEL EDSB-EDRY
Flight info
| Callsign | DIWEL |
|---|---|
| Flight time | 0h 15m |
| Altitude | 7000 |
| Route | KRH |
| Aircraft | BE60/L-SDFGRY/C |
Departure
| Time | 2026-05-07 21:04 |
|---|---|
| Airport | Karlsruhe Baden-Baden Airport (EDSB) |
Arrival
| Time | 2026-05-07 21:19 |
|---|---|
| Airport | Speyer Airfield (EDRY) |
| Time | Latitude | Longitude | Altitude | Speed | Heading |
|---|---|---|---|---|---|
| 2026-05-07 20:51 | 48.76958 | 8.07855 | 411 ft | 0 kts | 304° |
| 2026-05-07 21:01 | 48.76941 | 8.07805 | 411 ft | 8 kts | 210° |
| 2026-05-07 21:01 | 48.76902 | 8.07749 | 411 ft | 8 kts | 235° |
| 2026-05-07 21:01 | 48.76882 | 8.07661 | 411 ft | 10 kts | 276° |
| 2026-05-07 21:01 | 48.76893 | 8.07540 | 411 ft | 13 kts | 278° |
| 2026-05-07 21:02 | 48.76881 | 8.07380 | 410 ft | 18 kts | 254° |
| 2026-05-07 21:02 | 48.76773 | 8.07251 | 411 ft | 16 kts | 213° |
| 2026-05-07 21:02 | 48.76736 | 8.07212 | 411 ft | 7 kts | 224° |
| 2026-05-07 21:02 | 48.76742 | 8.07119 | 411 ft | 14 kts | 303° |
| 2026-05-07 21:03 | 48.76835 | 8.07020 | 409 ft | 19 kts | 24° |
| 2026-05-07 21:03 | 48.76882 | 8.07063 | 409 ft | 17 kts | 33° |
| 2026-05-07 21:03 | 48.77222 | 8.07385 | 409 ft | 94 kts | 31° |
| 2026-05-07 21:03 | 48.77884 | 8.07992 | 612 ft | 123 kts | 30° |
| 2026-05-07 21:04 | 48.78630 | 8.08668 | 1159 ft | 126 kts | 31° |
| 2026-05-07 21:04 | 48.79391 | 8.09369 | 1712 ft | 129 kts | 31° |
| 2026-05-07 21:04 | 48.80152 | 8.10065 | 2386 ft | 126 kts | 31° |
| 2026-05-07 21:04 | 48.80904 | 8.10725 | 3032 ft | 124 kts | 31° |
| 2026-05-07 21:05 | 48.81617 | 8.11352 | 3600 ft | 117 kts | 31° |
| 2026-05-07 21:05 | 48.82305 | 8.11970 | 4105 ft | 114 kts | 31° |
| 2026-05-07 21:05 | 48.82980 | 8.12587 | 4591 ft | 113 kts | 31° |
| 2026-05-07 21:05 | 48.83649 | 8.13211 | 5060 ft | 113 kts | 31° |
| 2026-05-07 21:06 | 48.84317 | 8.13842 | 5516 ft | 113 kts | 31° |
| 2026-05-07 21:06 | 48.84986 | 8.14491 | 5978 ft | 114 kts | 31° |
| 2026-05-07 21:06 | 48.85654 | 8.15147 | 6434 ft | 115 kts | 31° |
| 2026-05-07 21:06 | 48.86331 | 8.15820 | 6882 ft | 118 kts | 31° |
| 2026-05-07 21:07 | 48.87083 | 8.16565 | 7108 ft | 148 kts | 31° |
| 2026-05-07 21:07 | 48.88054 | 8.17516 | 7109 ft | 181 kts | 31° |
| 2026-05-07 21:07 | 48.89174 | 8.18608 | 7104 ft | 198 kts | 31° |
| 2026-05-07 21:07 | 48.90366 | 8.19767 | 7095 ft | 208 kts | 31° |
| 2026-05-07 21:08 | 48.91603 | 8.20970 | 7087 ft | 214 kts | 31° |
| 2026-05-07 21:08 | 48.92850 | 8.22183 | 7084 ft | 217 kts | 31° |
| 2026-05-07 21:08 | 48.94017 | 8.23633 | 7084 ft | 220 kts | 53° |
| 2026-05-07 21:08 | 48.94516 | 8.25805 | 7086 ft | 221 kts | 86° |
| 2026-05-07 21:09 | 48.94514 | 8.28169 | 7085 ft | 225 kts | 89° |
| 2026-05-07 21:09 | 48.94718 | 8.30545 | 7085 ft | 228 kts | 77° |
| 2026-05-07 21:09 | 48.95138 | 8.32887 | 7084 ft | 230 kts | 74° |
| 2026-05-07 21:09 | 48.95559 | 8.35243 | 7086 ft | 231 kts | 76° |
| 2026-05-07 21:10 | 48.95940 | 8.37620 | 7084 ft | 231 kts | 76° |
| 2026-05-07 21:10 | 48.96318 | 8.39991 | 7084 ft | 230 kts | 76° |
| 2026-05-07 21:10 | 48.96704 | 8.42375 | 7083 ft | 234 kts | 76° |
| 2026-05-07 21:10 | 48.97097 | 8.44794 | 7084 ft | 237 kts | 76° |
| 2026-05-07 21:11 | 48.97491 | 8.47244 | 7081 ft | 239 kts | 76° |
| 2026-05-07 21:11 | 48.97889 | 8.49707 | 7083 ft | 240 kts | 76° |
| 2026-05-07 21:11 | 48.99335 | 8.54130 | 6667 ft | 225 kts | 45° |
| 2026-05-07 21:12 | 49.00545 | 8.55530 | 6341 ft | 214 kts | 27° |
| 2026-05-07 21:12 | 49.01903 | 8.56325 | 5995 ft | 206 kts | 12° |
| 2026-05-07 21:12 | 49.03302 | 8.56529 | 5636 ft | 200 kts | 357° |
| 2026-05-07 21:12 | 49.04643 | 8.56184 | 5222 ft | 197 kts | 343° |
| 2026-05-07 21:13 | 49.05957 | 8.55600 | 4805 ft | 195 kts | 345° |
| 2026-05-07 21:13 | 49.07256 | 8.55053 | 4385 ft | 190 kts | 345° |
| 2026-05-07 21:13 | 49.08502 | 8.54527 | 3963 ft | 182 kts | 345° |
| 2026-05-07 21:13 | 49.09708 | 8.54014 | 3547 ft | 178 kts | 345° |
| 2026-05-07 21:14 | 49.10891 | 8.53511 | 3137 ft | 175 kts | 346° |
| 2026-05-07 21:14 | 49.12004 | 8.53036 | 3064 ft | 157 kts | 346° |
| 2026-05-07 21:14 | 49.13001 | 8.52611 | 3063 ft | 142 kts | 346° |
| 2026-05-07 21:14 | 49.13955 | 8.52207 | 3069 ft | 151 kts | 346° |
| 2026-05-07 21:15 | 49.15020 | 8.51756 | 3089 ft | 171 kts | 346° |
| 2026-05-07 21:15 | 49.16245 | 8.51239 | 3090 ft | 192 kts | 346° |
| 2026-05-07 21:15 | 49.17576 | 8.50672 | 3088 ft | 205 kts | 345° |
| 2026-05-07 21:15 | 49.18975 | 8.50076 | 3085 ft | 212 kts | 345° |
| 2026-05-07 21:16 | 49.20377 | 8.49477 | 3076 ft | 198 kts | 345° |
| 2026-05-07 21:16 | 49.21652 | 8.48935 | 2868 ft | 186 kts | 346° |
| 2026-05-07 21:16 | 49.22841 | 8.48381 | 2450 ft | 180 kts | 344° |
| 2026-05-07 21:16 | 49.23992 | 8.47820 | 1871 ft | 168 kts | 344° |
| 2026-05-07 21:17 | 49.24996 | 8.47362 | 1454 ft | 132 kts | 346° |
| 2026-05-07 21:17 | 49.25804 | 8.47036 | 1172 ft | 112 kts | 348° |
| 2026-05-07 21:17 | 49.26576 | 8.46768 | 965 ft | 116 kts | 346° |
| 2026-05-07 21:17 | 49.27334 | 8.46476 | 859 ft | 108 kts | 346° |
| 2026-05-07 21:18 | 49.27982 | 8.46194 | 679 ft | 86 kts | 343° |
| 2026-05-07 21:18 | 49.28575 | 8.45941 | 567 ft | 93 kts | 346° |
| 2026-05-07 21:18 | 49.29204 | 8.45685 | 476 ft | 90 kts | 346° |
| 2026-05-07 21:18 | 49.29787 | 8.45452 | 341 ft | 80 kts | 346° |
| 2026-05-07 21:19 | 49.30234 | 8.45272 | 326 ft | 50 kts | 345° |
| 2026-05-07 21:19 | 49.30429 | 8.45200 | 325 ft | 23 kts | 357° |
| 2026-05-07 21:19 | 49.30470 | 8.45297 | 328 ft | 6 kts | 122° |
| 2026-05-07 21:19 | 49.30442 | 8.45315 | 328 ft | 4 kts | 168° |
| 2026-05-07 21:20 | 49.30416 | 8.45324 | 328 ft | 6 kts | 166° |
| 2026-05-07 21:20 | 49.30381 | 8.45339 | 328 ft | 1 kts | 165° |
| 2026-05-07 21:20 | 49.30385 | 8.45377 | 328 ft | 9 kts | 31° |
| 2026-05-07 21:20 | 49.30388 | 8.45403 | 328 ft | 4 kts | 216° |
| 2026-05-07 21:21 | 49.30384 | 8.45384 | 328 ft | 0 kts | 258° |